createdAt,value
2023-04-25T00:00:45.863Z,7.47
2023-04-25T00:01:46.184Z,7.51
2023-04-25T00:02:46.620Z,7.53
2023-04-25T00:03:47.264Z,7.48
2023-04-25T00:04:47.415Z,7.48
2023-04-25T00:05:47.689Z,7.48
2023-04-25T00:06:47.944Z,7.50
2023-04-25T00:07:48.299Z,7.48
2023-04-25T00:08:48.636Z,7.47
2023-04-25T00:09:48.982Z,7.45
2023-04-25T00:10:49.345Z,7.45
2023-04-25T00:11:49.698Z,7.45
2023-04-25T00:12:50.068Z,7.45
2023-04-25T00:13:50.694Z,7.43
2023-04-25T00:14:50.775Z,7.43
2023-04-25T00:15:51.149Z,7.40
2023-04-25T00:16:51.487Z,7.40
2023-04-25T00:17:51.884Z,7.42
2023-04-25T00:18:52.229Z,7.43
2023-04-25T00:19:52.572Z,7.45
2023-04-25T00:20:52.937Z,7.40
2023-04-25T00:21:53.266Z,7.42
2023-04-25T00:22:53.628Z,7.42
2023-04-25T00:23:53.949Z,7.39
2023-04-25T00:24:54.319Z,7.40
2023-04-25T00:25:54.661Z,7.42
2023-04-25T00:26:55.011Z,7.40
2023-04-25T00:27:55.358Z,7.39
2023-04-25T00:28:55.700Z,7.39
2023-04-25T00:29:56.038Z,7.39
2023-04-25T00:30:56.400Z,7.35
2023-04-25T00:31:56.852Z,7.35
2023-04-25T00:32:57.154Z,7.33
2023-04-25T00:33:57.475Z,7.36
2023-04-25T00:34:57.825Z,7.36
2023-04-25T00:35:58.240Z,7.33
2023-04-25T00:36:58.515Z,7.32
2023-04-25T00:37:58.866Z,7.31
2023-04-25T00:38:59.206Z,7.24
2023-04-25T00:39:59.563Z,7.25
2023-04-25T00:40:59.920Z,7.23
2023-04-25T00:42:00.258Z,7.20
2023-04-25T00:43:00.606Z,7.17
2023-04-25T00:44:00.957Z,7.17
2023-04-25T00:45:01.288Z,7.13
2023-04-25T00:46:01.669Z,7.13
2023-04-25T00:47:02.044Z,7.13
2023-04-25T00:48:02.387Z,7.13
2023-04-25T00:49:02.715Z,7.17
2023-04-25T00:50:03.076Z,7.18
2023-04-25T00:51:03.422Z,7.15
2023-04-25T00:52:03.768Z,7.14
2023-04-25T00:53:04.115Z,7.17
2023-04-25T00:54:04.514Z,7.15
2023-04-25T00:55:04.860Z,7.13
2023-04-25T00:56:05.235Z,7.11
2023-04-25T00:57:05.561Z,7.10
2023-04-25T00:58:05.913Z,7.07
2023-04-25T00:59:06.251Z,7.05
2023-04-25T01:00:06.590Z,7.06
2023-04-25T01:01:06.972Z,7.03
2023-04-25T01:02:07.286Z,7.05
2023-04-25T01:03:07.799Z,7.07
2023-04-25T01:04:08.057Z,7.05
2023-04-25T01:05:08.299Z,7.10
2023-04-25T01:06:08.672Z,7.11
2023-04-25T01:07:09.011Z,7.11
2023-04-25T01:08:09.359Z,7.10
2023-04-25T01:09:09.701Z,7.05
2023-04-25T01:10:10.077Z,7.02
2023-04-25T01:11:10.430Z,6.99
2023-04-25T01:12:10.781Z,6.99
2023-04-25T01:13:11.135Z,6.97
2023-04-25T01:14:11.494Z,7.02
2023-04-25T01:15:11.836Z,7.02
2023-04-25T01:16:12.248Z,6.99
2023-04-25T01:17:12.552Z,6.95
2023-04-25T01:18:13.046Z,6.96
2023-04-25T01:19:13.321Z,6.95
2023-04-25T01:20:13.587Z,6.96
2023-04-25T01:21:14.010Z,6.95
2023-04-25T01:22:14.281Z,6.95
2023-04-25T01:23:14.618Z,6.92
2023-04-25T01:24:14.956Z,6.87
2023-04-25T01:25:15.318Z,6.85
2023-04-25T01:26:15.676Z,6.88
2023-04-25T01:27:16.022Z,6.93
2023-04-25T01:28:16.384Z,6.89
2023-04-25T01:30:58.118Z,6.85
2023-04-25T01:31:33.573Z,6.87
2023-04-25T01:32:33.909Z,6.82
2023-04-25T01:33:34.188Z,6.79
2023-04-25T01:34:34.509Z,6.79
2023-04-25T01:35:34.856Z,6.78
2023-04-25T01:36:35.240Z,6.79
2023-04-25T01:37:35.531Z,6.77
2023-04-25T01:38:35.875Z,6.75
2023-04-25T01:39:36.220Z,6.77
2023-04-25T01:40:36.562Z,6.78
2023-04-25T01:41:36.914Z,6.77
2023-04-25T01:42:37.265Z,6.75
2023-04-25T01:43:37.617Z,6.70
2023-04-25T01:44:37.986Z,6.72
2023-04-25T01:45:38.315Z,6.69
2023-04-25T01:46:38.808Z,6.67
2023-04-25T01:47:39.073Z,6.66
2023-04-25T01:48:39.383Z,6.69
2023-04-25T01:49:39.734Z,6.78
2023-04-25T01:50:40.085Z,6.78
2023-04-25T01:51:40.479Z,6.77
2023-04-25T01:52:40.797Z,6.77
2023-04-25T01:53:41.152Z,6.79
2023-04-25T01:54:41.488Z,6.77
2023-04-25T01:55:41.838Z,6.74
2023-04-25T01:56:42.243Z,6.75
2023-04-25T01:57:42.570Z,6.75
2023-04-25T01:58:42.902Z,6.74
2023-04-25T01:59:43.250Z,6.74
2023-04-25T02:00:43.627Z,6.74
2023-04-25T02:01:43.985Z,6.75
2023-04-25T02:02:44.374Z,6.69
2023-04-25T02:03:44.792Z,6.67
2023-04-25T02:04:45.083Z,6.69
2023-04-25T02:05:45.348Z,6.70
2023-04-25T02:06:45.722Z,6.67
2023-04-25T02:07:46.049Z,6.66
2023-04-25T02:08:46.397Z,6.67
2023-04-25T02:12:18.571Z,6.56
2023-04-25T02:13:19.870Z,6.57
2023-04-25T02:14:20.211Z,6.60
2023-04-25T02:15:20.555Z,6.59
2023-04-25T02:16:21.000Z,6.57
2023-04-25T02:17:21.262Z,6.57
2023-04-25T02:18:21.654Z,6.63
2023-04-25T02:19:21.957Z,6.64
2023-04-25T02:20:22.293Z,6.60
2023-04-25T02:21:22.659Z,6.57
2023-04-25T02:22:23.010Z,6.60
2023-04-25T02:23:23.363Z,6.56
2023-04-25T02:24:23.856Z,6.56
2023-04-25T02:25:24.143Z,6.51
2023-04-25T02:26:24.424Z,6.54
2023-04-25T02:27:24.773Z,6.60
2023-04-25T02:28:25.126Z,6.57
2023-04-25T02:29:25.487Z,6.56
2023-04-25T02:30:25.822Z,6.51
2023-04-25T02:31:26.253Z,6.59
2023-04-25T02:32:26.722Z,6.62
2023-04-25T02:33:26.867Z,6.59
2023-04-25T02:34:27.218Z,6.56
2023-04-25T02:35:27.568Z,6.54
2023-04-25T02:36:27.900Z,6.51
2023-04-25T02:37:28.298Z,6.59
2023-04-25T02:38:28.615Z,6.57
2023-04-25T02:39:28.952Z,6.56
2023-04-25T02:40:29.292Z,6.59
2023-04-25T02:41:29.637Z,6.54
2023-04-25T02:42:30.022Z,6.48
2023-04-25T02:43:30.359Z,6.48
2023-04-25T02:44:30.689Z,6.46
2023-04-25T02:45:31.044Z,6.45
2023-04-25T02:46:38.843Z,6.44
2023-04-25T02:47:31.822Z,6.41
2023-04-25T02:48:32.085Z,6.38
2023-04-25T02:49:32.441Z,6.39
2023-04-25T02:50:32.792Z,6.39
2023-04-25T02:51:33.153Z,6.38
2023-04-25T02:52:33.499Z,6.39
2023-04-25T02:53:33.843Z,6.42
2023-04-25T02:54:34.180Z,6.42
2023-04-25T02:55:34.532Z,6.39
2023-04-25T02:56:34.858Z,6.46
2023-04-25T02:57:35.279Z,6.42
2023-04-25T02:58:35.590Z,6.36
2023-04-25T02:59:35.902Z,6.28
2023-04-25T03:00:36.258Z,6.27
2023-04-25T03:01:36.607Z,6.31
2023-04-25T03:02:37.014Z,6.28
2023-04-25T03:03:37.347Z,6.26
2023-04-25T03:04:37.774Z,6.28
2023-04-25T03:05:38.023Z,6.19
2023-04-25T03:06:38.377Z,6.11
2023-04-25T03:07:38.759Z,6.08
2023-04-25T03:08:39.066Z,6.14
2023-04-25T03:09:39.416Z,6.16
2023-04-25T03:10:39.763Z,6.09
2023-04-25T03:11:40.106Z,6.04
2023-04-25T03:12:40.586Z,6.05
2023-04-25T03:13:40.812Z,5.99
2023-04-25T03:14:41.163Z,5.94
2023-04-25T03:15:41.548Z,5.86
2023-04-25T03:16:41.958Z,5.98
2023-04-25T03:17:44.118Z,6.04
2023-04-25T03:18:42.631Z,5.98
2023-04-25T03:19:42.992Z,5.91
2023-04-25T03:20:43.180Z,5.89
2023-04-25T03:21:43.485Z,5.94
2023-04-25T03:22:43.777Z,5.86
2023-04-25T03:23:46.055Z,5.87
2023-04-25T03:24:44.342Z,5.83
2023-04-25T03:25:44.588Z,5.83
2023-04-25T03:26:44.885Z,5.87
2023-04-25T03:27:45.176Z,5.83
2023-04-25T03:28:45.478Z,5.82
2023-04-25T03:29:45.775Z,5.79
2023-04-25T03:30:46.037Z,5.73
2023-04-25T03:31:46.344Z,5.76
2023-04-25T03:32:46.666Z,5.79
2023-04-25T03:33:46.886Z,5.82
2023-04-25T03:34:49.144Z,5.82
2023-04-25T03:35:47.440Z,5.76
2023-04-25T03:36:47.738Z,5.72
2023-04-25T03:37:48.055Z,5.71
2023-04-25T03:38:48.196Z,5.76
2023-04-25T03:39:48.362Z,5.75
2023-04-25T03:40:50.572Z,5.73
2023-04-25T03:41:48.982Z,5.75
2023-04-25T03:42:49.275Z,5.73
2023-04-25T03:43:49.577Z,5.75
2023-04-25T03:44:49.708Z,5.75
2023-04-25T03:45:50.016Z,5.72
2023-04-25T03:46:50.257Z,5.71
2023-04-25T03:47:50.490Z,5.69
2023-04-25T03:48:50.720Z,5.68
2023-04-25T03:49:51.025Z,5.68
2023-04-25T03:50:51.286Z,5.65
2023-04-25T03:51:51.467Z,5.66
2023-04-25T03:52:51.761Z,5.69
2023-04-25T03:53:52.216Z,5.73
2023-04-25T03:54:52.200Z,5.73
2023-04-25T03:55:52.491Z,5.76
2023-04-25T03:56:52.809Z,5.72
2023-04-25T03:57:53.091Z,5.72
2023-04-25T03:58:53.261Z,5.69
2023-04-25T03:59:53.410Z,5.69
2023-04-25T04:00:53.720Z,5.69
2023-04-25T04:01:53.887Z,5.69
2023-04-25T04:02:54.230Z,5.69
2023-04-25T04:03:54.818Z,5.72
2023-04-25T04:04:55.132Z,5.73
2023-04-25T04:05:54.589Z,5.72
2023-04-25T04:06:54.749Z,5.72
2023-04-25T04:07:54.933Z,5.73
2023-04-25T04:08:55.130Z,5.75
2023-04-25T04:09:55.317Z,5.72
2023-04-25T04:10:55.440Z,5.72
2023-04-25T04:11:56.453Z,5.69
2023-04-25T04:12:55.942Z,5.66
2023-04-25T04:13:56.329Z,5.71
2023-04-25T04:14:56.499Z,5.69
2023-04-25T04:15:56.706Z,5.72
2023-04-25T04:16:56.957Z,5.72
2023-04-25T04:17:57.194Z,5.69
2023-04-25T04:18:57.285Z,5.71
2023-04-25T04:19:57.475Z,5.69
2023-04-25T04:20:57.675Z,5.72
2023-04-25T04:21:57.812Z,5.71
2023-04-25T04:22:58.151Z,5.66
2023-04-25T04:23:58.373Z,5.69
2023-04-25T04:24:58.667Z,5.71
2023-04-25T04:25:58.836Z,5.68
2023-04-25T04:26:59.015Z,5.65
2023-04-25T04:27:59.192Z,5.64
2023-04-25T04:28:59.351Z,5.64
2023-04-25T04:29:59.548Z,5.64
2023-04-25T04:30:59.861Z,5.69
2023-04-25T04:32:00.169Z,5.71
2023-04-25T04:33:00.425Z,5.75
2023-04-25T04:34:00.484Z,5.75
2023-04-25T04:35:00.663Z,5.75
2023-04-25T04:36:00.851Z,5.75
2023-04-25T04:37:01.061Z,5.76
2023-04-25T04:38:01.244Z,5.80
2023-04-25T04:39:01.397Z,5.79
2023-04-25T04:40:01.605Z,5.80
2023-04-25T04:41:01.767Z,5.79
2023-04-25T04:42:02.044Z,5.80
2023-04-25T04:43:02.290Z,5.79
2023-04-25T04:44:02.418Z,5.79
2023-04-25T04:45:02.615Z,5.79
2023-04-25T04:46:02.864Z,5.79
2023-04-25T04:47:03.249Z,5.80
2023-04-25T04:48:03.510Z,5.82
2023-04-25T04:49:03.643Z,5.83
2023-04-25T04:50:03.812Z,5.86
2023-04-25T04:51:04.010Z,5.84
2023-04-25T04:52:04.280Z,5.86
2023-04-25T04:53:04.490Z,5.87
2023-04-25T04:54:04.648Z,5.86
2023-04-25T04:55:04.970Z,5.87
2023-04-25T04:56:05.139Z,5.86
2023-04-25T04:57:05.443Z,5.87
2023-04-25T04:58:05.751Z,5.87
2023-04-25T04:59:05.935Z,5.84
2023-04-25T05:00:06.107Z,5.87
2023-04-25T05:01:06.445Z,5.86
2023-04-25T05:02:06.592Z,5.86
2023-04-25T05:03:06.966Z,5.86
2023-04-25T05:04:07.115Z,5.87
2023-04-25T05:05:07.252Z,5.87
2023-04-25T05:06:07.437Z,5.86
2023-04-25T05:07:07.741Z,5.89
2023-04-25T05:08:07.944Z,5.90
2023-04-25T05:09:08.250Z,5.89
2023-04-25T05:10:08.501Z,5.87
2023-04-25T05:11:08.809Z,5.87
2023-04-25T05:12:08.988Z,5.83
2023-04-25T05:13:09.300Z,5.84
2023-04-25T05:14:09.474Z,5.83
2023-04-25T05:15:09.657Z,5.84
2023-04-25T05:16:10.032Z,5.82
2023-04-25T05:17:10.138Z,5.83
2023-04-25T05:18:11.692Z,5.84
2023-04-25T05:19:10.612Z,5.89
2023-04-25T05:20:10.909Z,5.87
2023-04-25T05:21:11.101Z,5.87
2023-04-25T05:22:11.314Z,5.87
2023-04-25T05:23:11.586Z,5.90
2023-04-25T05:24:11.764Z,5.89
2023-04-25T05:25:12.081Z,5.89
2023-04-25T05:26:12.453Z,5.89
2023-04-25T05:27:12.674Z,5.89
2023-04-25T05:28:12.858Z,5.87
2023-04-25T05:29:13.038Z,5.89
2023-04-25T05:30:13.343Z,5.90
2023-04-25T05:31:13.502Z,5.91
2023-04-25T05:32:13.937Z,5.90
2023-04-25T05:33:14.084Z,5.90
2023-04-25T05:34:14.283Z,5.91
2023-04-25T05:35:14.631Z,5.90
2023-04-25T05:36:14.871Z,5.94
2023-04-25T05:37:15.162Z,5.91
2023-04-25T05:38:15.381Z,5.87
2023-04-25T05:39:15.558Z,5.91
2023-04-25T05:40:15.874Z,5.91
2023-04-25T05:41:16.027Z,5.91
2023-04-25T05:42:16.335Z,5.93
2023-04-25T05:43:16.666Z,5.90
2023-04-25T05:44:16.951Z,5.91
2023-04-25T05:45:17.244Z,5.87
2023-04-25T05:46:17.559Z,5.87
2023-04-25T05:47:17.715Z,5.89
2023-04-25T05:48:17.935Z,5.89
2023-04-25T05:49:19.587Z,5.91
2023-04-25T05:50:18.380Z,5.89
2023-04-25T05:51:18.544Z,5.90
2023-04-25T05:52:18.877Z,5.90
2023-04-25T05:53:19.045Z,5.89
2023-04-25T05:54:19.208Z,5.94
2023-04-25T05:55:19.513Z,5.97
2023-04-25T05:56:19.811Z,5.99
2023-04-25T05:57:20.108Z,5.99
2023-04-25T05:58:20.422Z,6.02
2023-04-25T05:59:20.707Z,6.02
2023-04-25T06:00:21.015Z,6.02
2023-04-25T06:01:21.188Z,6.01
2023-04-25T06:02:21.649Z,6.02
2023-04-25T06:03:21.854Z,6.04
2023-04-25T06:04:22.212Z,6.04
2023-04-25T06:05:22.206Z,6.07
2023-04-25T06:06:22.430Z,6.05
2023-04-25T06:07:22.761Z,6.07
2023-04-25T06:08:23.054Z,6.05
2023-04-25T06:09:23.209Z,6.09
2023-04-25T06:10:23.541Z,6.11
2023-04-25T06:11:23.695Z,6.12
2023-04-25T06:12:23.885Z,6.11
2023-04-25T06:13:24.199Z,6.12
2023-04-25T06:14:24.368Z,6.16
2023-04-25T06:15:28.710Z,6.11
2023-04-25T06:16:25.008Z,6.08
2023-04-25T06:17:25.184Z,5.99
2023-04-25T06:18:25.354Z,5.97
2023-04-25T06:19:25.531Z,5.94
2023-04-25T06:20:25.769Z,5.94
2023-04-25T06:21:25.992Z,5.86
2023-04-25T06:22:26.292Z,5.90
2023-04-25T06:23:26.612Z,5.87
2023-04-25T06:24:26.779Z,5.80
2023-04-25T06:25:27.068Z,5.79
2023-04-25T06:26:27.268Z,5.80
2023-04-25T06:27:27.571Z,5.82
2023-04-25T06:28:27.784Z,5.82
2023-04-25T06:29:28.058Z,5.83
2023-04-25T06:30:28.431Z,5.89
2023-04-25T06:31:28.571Z,5.90
2023-04-25T06:32:29.268Z,5.91
2023-04-25T06:33:28.925Z,5.91
2023-04-25T06:34:29.210Z,5.97
2023-04-25T06:35:29.500Z,5.98
2023-04-25T06:36:29.794Z,6.01
2023-04-25T06:37:30.110Z,6.01
2023-04-25T06:38:30.297Z,6.02
2023-04-25T06:39:30.451Z,6.08
2023-04-25T06:40:30.757Z,6.09
2023-04-25T06:41:30.927Z,6.14
2023-04-25T06:42:31.236Z,6.19
2023-04-25T06:43:31.442Z,6.14
2023-04-25T06:44:31.695Z,6.24
2023-04-25T06:45:31.890Z,6.28
2023-04-25T06:46:32.220Z,6.24
2023-04-25T06:47:32.397Z,6.22
2023-04-25T06:48:32.572Z,6.26
2023-04-25T06:49:32.723Z,6.24
2023-04-25T06:50:33.023Z,6.22
2023-04-25T06:51:33.339Z,6.24
2023-04-25T06:52:33.518Z,6.17
2023-04-25T06:53:33.829Z,6.11
2023-04-25T06:54:33.988Z,6.19
2023-04-25T06:55:34.299Z,6.30
2023-04-25T06:56:34.485Z,6.26
2023-04-25T06:57:34.664Z,6.20
2023-04-25T06:58:34.902Z,6.26
2023-04-25T06:59:35.138Z,6.26
2023-04-25T07:00:35.506Z,6.08
2023-04-25T07:01:35.642Z,5.98
2023-04-25T07:02:36.104Z,5.91
2023-04-25T07:03:36.355Z,6.01
2023-04-25T07:04:36.484Z,5.99
2023-04-25T07:05:36.597Z,6.07
2023-04-25T07:06:36.762Z,6.16
2023-04-25T07:07:37.071Z,5.93
2023-04-25T07:08:37.373Z,6.04
2023-04-25T07:09:37.536Z,6.02
2023-04-25T07:10:37.847Z,6.16
2023-04-25T07:11:38.159Z,6.22
2023-04-25T07:12:38.326Z,6.24
2023-04-25T07:13:38.641Z,6.16
2023-04-25T07:14:38.813Z,6.16
2023-04-25T07:15:39.113Z,6.19
2023-04-25T07:16:39.426Z,6.24
2023-04-25T07:17:39.738Z,6.27
2023-04-25T07:18:40.037Z,6.33
2023-04-25T07:19:40.202Z,6.36
2023-04-25T07:20:40.498Z,6.28
2023-04-25T07:21:40.673Z,6.36
2023-04-25T07:22:40.963Z,6.41
2023-04-25T07:23:41.273Z,6.41
2023-04-25T07:24:41.580Z,6.48
2023-04-25T07:25:41.745Z,6.46
2023-04-25T07:26:42.045Z,6.54
2023-04-25T07:27:42.347Z,6.56
2023-04-25T07:28:42.683Z,6.64
2023-04-25T07:29:42.844Z,6.69
2023-04-25T07:30:43.024Z,6.72
2023-04-25T07:31:43.344Z,6.77
2023-04-25T07:32:43.680Z,6.81
2023-04-25T07:33:43.825Z,6.85
2023-04-25T07:34:44.002Z,6.67
2023-04-25T07:35:44.310Z,6.60
2023-04-25T07:36:44.469Z,6.69
2023-04-25T07:37:44.648Z,6.75
2023-04-25T07:38:44.971Z,6.69
2023-04-25T07:39:45.146Z,6.75
2023-04-25T07:40:45.437Z,6.85
2023-04-25T07:41:45.734Z,6.81
2023-04-25T07:42:45.942Z,6.72
2023-04-25T07:43:46.148Z,6.74
2023-04-25T07:44:46.296Z,6.75
2023-04-25T07:45:46.491Z,6.81
2023-04-25T07:46:46.678Z,6.84
2023-04-25T07:47:46.900Z,7.03
2023-04-25T07:48:47.091Z,7.00
2023-04-25T07:49:47.211Z,7.05
2023-04-25T07:50:47.389Z,7.05
2023-04-25T07:51:47.690Z,6.85
2023-04-25T07:52:47.876Z,7.10
2023-04-25T07:53:50.217Z,6.99
2023-04-25T07:54:48.272Z,7.15
2023-04-25T07:55:48.445Z,7.23
2023-04-25T07:56:52.571Z,7.39
2023-04-25T07:57:48.816Z,7.20
2023-04-25T07:58:49.198Z,7.05
2023-04-25T07:59:49.179Z,7.15
2023-04-25T08:00:49.371Z,7.14
2023-04-25T08:01:49.556Z,7.24
2023-04-25T08:02:49.835Z,7.36
2023-04-25T08:03:50.159Z,7.36
2023-04-25T08:04:50.242Z,7.25
2023-04-25T08:05:50.378Z,7.29
2023-04-25T08:06:50.535Z,7.35
2023-04-25T08:07:50.687Z,7.54
2023-04-25T08:08:51.221Z,7.47
2023-04-25T08:09:51.178Z,7.35
2023-04-25T08:10:51.359Z,7.24
2023-04-25T08:11:51.551Z,7.23
2023-04-25T08:12:51.742Z,7.13
2023-04-25T08:13:51.941Z,7.24
2023-04-25T08:14:52.095Z,7.07
2023-04-25T08:15:52.315Z,7.05
2023-04-25T08:16:52.486Z,7.13
2023-04-25T08:17:52.694Z,7.11
2023-04-25T08:18:53.279Z,7.13
2023-04-25T08:19:53.011Z,7.06
2023-04-25T08:20:53.193Z,7.24
2023-04-25T08:21:53.381Z,7.18
2023-04-25T08:22:53.562Z,7.23
2023-04-25T08:23:53.790Z,7.31
2023-04-25T08:24:53.908Z,7.33
2023-04-25T08:25:54.099Z,7.47
2023-04-25T08:26:54.307Z,7.63
2023-04-25T08:27:54.446Z,7.60
2023-04-25T08:28:54.654Z,7.69
2023-04-25T08:29:54.938Z,7.25
2023-04-25T08:30:55.161Z,7.36
2023-04-25T08:31:55.403Z,7.54
2023-04-25T08:32:55.499Z,7.45
2023-04-25T08:33:55.672Z,7.60
2023-04-25T08:34:56.106Z,7.76
2023-04-25T08:35:56.027Z,7.82
2023-04-25T08:36:56.216Z,7.82
2023-04-25T08:37:56.390Z,7.83
2023-04-25T08:38:56.898Z,7.95
2023-04-25T08:39:56.871Z,7.97
2023-04-25T08:40:57.183Z,8.09
2023-04-25T08:41:57.350Z,7.91
2023-04-25T08:42:57.519Z,7.75
2023-04-25T08:43:57.881Z,7.67
2023-04-25T08:44:58.032Z,7.85
2023-04-25T08:45:58.205Z,8.06
2023-04-25T08:46:58.412Z,8.31
2023-04-25T08:47:58.577Z,8.34
2023-04-25T08:48:59.093Z,8.20
2023-04-25T08:49:58.891Z,7.94
2023-04-25T08:50:59.088Z,8.00
2023-04-25T08:51:59.254Z,7.54
2023-04-25T08:52:59.449Z,6.64
2023-04-25T08:54:06.796Z,5.91
2023-04-25T08:54:59.921Z,5.33
2023-04-25T08:56:00.099Z,5.11
2023-04-25T08:57:00.278Z,5.00
2023-04-25T08:58:00.580Z,4.94
2023-04-25T08:59:00.884Z,4.92
2023-04-25T09:00:01.069Z,4.90
2023-04-25T09:01:01.381Z,4.93
2023-04-25T09:02:01.604Z,4.82
2023-04-25T09:03:01.964Z,4.97
2023-04-25T09:04:02.209Z,4.99
2023-04-25T09:05:02.300Z,5.05
2023-04-25T09:06:02.598Z,5.08
2023-04-25T09:07:02.903Z,5.11
2023-04-25T09:08:03.077Z,5.18
2023-04-25T09:09:03.403Z,5.23
2023-04-25T09:10:03.606Z,5.23
2023-04-25T09:11:03.859Z,5.33
2023-04-25T09:12:04.061Z,5.43
2023-04-25T09:13:04.246Z,5.50
2023-04-25T09:14:04.432Z,5.69
2023-04-25T09:15:04.618Z,5.75
2023-04-25T09:16:04.825Z,5.90
2023-04-25T09:17:05.101Z,5.99
2023-04-25T09:18:05.226Z,6.02
2023-04-25T09:19:05.372Z,6.11
2023-04-25T09:20:05.524Z,6.19
2023-04-25T09:21:12.597Z,6.14
2023-04-25T09:22:05.888Z,6.20
2023-04-25T09:23:06.081Z,6.28
2023-04-25T09:24:06.405Z,6.41
2023-04-25T09:25:06.433Z,6.38
2023-04-25T09:26:06.621Z,6.64
2023-04-25T09:27:06.824Z,6.82
2023-04-25T09:28:07.001Z,7.05
2023-04-25T09:29:07.216Z,7.38
2023-04-25T09:30:07.399Z,7.50
2023-04-25T09:31:07.548Z,7.72
2023-04-25T09:32:07.792Z,7.90
2023-04-25T09:33:07.978Z,7.66
2023-04-25T09:34:08.161Z,8.01
2023-04-25T09:35:14.828Z,8.01
2023-04-25T09:36:08.484Z,8.19
2023-04-25T09:37:08.666Z,8.31
2023-04-25T09:38:08.979Z,8.13
2023-04-25T09:39:09.302Z,7.87
2023-04-25T09:40:09.561Z,7.87
2023-04-25T09:41:09.868Z,7.72
2023-04-25T09:42:10.167Z,7.58
2023-04-25T09:43:10.357Z,7.69
2023-04-25T09:44:10.587Z,7.85
2023-04-25T09:45:10.711Z,7.42
2023-04-25T09:46:11.032Z,7.43
2023-04-25T09:47:11.113Z,7.43
2023-04-25T09:48:11.395Z,7.38
2023-04-25T09:49:11.571Z,7.21
2023-04-25T09:50:11.690Z,7.32
2023-04-25T09:51:11.899Z,7.36
2023-04-25T09:52:12.132Z,7.45
2023-04-25T09:53:12.275Z,7.40
2023-04-25T09:54:12.493Z,7.21
2023-04-25T09:55:12.643Z,7.45
2023-04-25T09:56:12.863Z,7.72
2023-04-25T09:57:13.023Z,7.76
2023-04-25T09:58:13.236Z,7.69
2023-04-25T09:59:13.460Z,7.69
2023-04-25T10:00:13.607Z,7.57
2023-04-25T10:01:13.821Z,7.98
2023-04-25T10:02:14.003Z,8.30
2023-04-25T10:03:14.217Z,8.56
2023-04-25T10:04:14.406Z,8.52
2023-04-25T10:05:14.535Z,8.44
2023-04-25T10:06:14.686Z,8.82
2023-04-25T10:07:14.886Z,8.60
2023-04-25T10:08:15.070Z,8.63
2023-04-25T10:09:15.280Z,8.51
2023-04-25T10:10:15.488Z,8.70
2023-04-25T10:11:15.658Z,9.16
2023-04-25T10:12:15.942Z,9.23
2023-04-25T10:13:16.068Z,9.18
2023-04-25T10:14:16.252Z,9.29
2023-04-25T10:15:16.411Z,8.87
2023-04-25T10:16:16.654Z,8.63
2023-04-25T10:17:16.773Z,9.03
2023-04-25T10:18:16.939Z,9.43
2023-04-25T10:19:17.188Z,9.40
2023-04-25T10:20:17.334Z,9.54
2023-04-25T10:21:17.564Z,9.29
2023-04-25T10:22:17.733Z,9.10
2023-04-25T10:23:18.031Z,8.81
2023-04-25T10:24:18.205Z,8.61
2023-04-25T10:25:18.379Z,8.44
2023-04-25T10:26:18.546Z,8.31
2023-04-25T10:27:18.849Z,8.33
2023-04-25T10:28:19.016Z,7.91
2023-04-25T10:29:19.332Z,7.63
2023-04-25T10:30:19.505Z,7.48
2023-04-25T10:31:19.798Z,7.47
2023-04-25T10:32:19.970Z,7.43
2023-04-25T10:33:20.041Z,7.38
2023-04-25T10:34:20.365Z,7.36
2023-04-25T10:35:20.665Z,7.29
2023-04-25T10:36:20.934Z,7.14
2023-04-25T10:37:21.260Z,6.93
2023-04-25T10:38:21.427Z,6.72
2023-04-25T10:39:21.642Z,6.44
2023-04-25T10:40:21.770Z,6.38
2023-04-25T10:41:22.090Z,6.27
2023-04-25T10:42:22.261Z,6.20
2023-04-25T10:43:22.437Z,6.05
2023-04-25T10:44:22.653Z,6.17
2023-04-25T10:45:22.921Z,6.30
2023-04-25T10:46:23.196Z,6.28
2023-04-25T10:47:23.346Z,6.27
2023-04-25T10:48:23.455Z,6.27
2023-04-25T10:49:23.642Z,6.49
2023-04-25T10:50:23.781Z,6.31
2023-04-25T10:51:23.974Z,6.51
2023-04-25T10:52:24.158Z,6.74
2023-04-25T10:53:24.353Z,6.81
2023-04-25T10:54:24.565Z,6.88
2023-04-25T10:55:24.732Z,6.75
2023-04-25T10:56:24.922Z,7.00
2023-04-25T10:57:25.111Z,7.02
2023-04-25T10:58:25.310Z,6.96
2023-04-25T10:59:25.525Z,7.18
2023-04-25T11:00:30.829Z,7.13
2023-04-25T11:01:25.925Z,7.33
2023-04-25T11:02:26.134Z,7.38
2023-04-25T11:03:26.410Z,7.60
2023-04-25T11:04:26.981Z,7.69
2023-04-25T11:05:26.621Z,7.57
2023-04-25T11:06:26.812Z,7.66
2023-04-25T11:07:26.985Z,7.83
2023-04-25T11:08:27.150Z,7.97
2023-04-25T11:09:27.334Z,8.03
2023-04-25T11:10:27.493Z,8.20
2023-04-25T11:11:27.699Z,8.41
2023-04-25T11:12:27.899Z,8.34
2023-04-25T11:13:28.062Z,8.33
2023-04-25T11:14:28.282Z,8.18
2023-04-25T11:15:28.438Z,8.33
2023-04-25T11:16:29.152Z,8.05
2023-04-25T11:17:28.913Z,8.20
2023-04-25T11:18:28.988Z,8.31
2023-04-25T11:19:29.238Z,8.51
2023-04-25T11:20:29.315Z,8.69
2023-04-25T11:21:29.531Z,8.67
2023-04-25T11:22:29.701Z,8.79
2023-04-25T11:23:29.856Z,9.00
2023-04-25T11:24:30.119Z,9.11
2023-04-25T11:25:30.243Z,9.37
2023-04-25T11:26:30.445Z,9.39
2023-04-25T11:27:30.628Z,9.47
2023-04-25T11:28:30.813Z,9.65
2023-04-25T11:29:31.018Z,9.97
2023-04-25T11:30:31.323Z,9.87
2023-04-25T11:31:31.456Z,9.73
2023-04-25T11:32:31.773Z,9.64
2023-04-25T11:33:31.774Z,9.29
2023-04-25T11:34:32.058Z,9.11
2023-04-25T11:35:32.170Z,8.95
2023-04-25T11:36:32.366Z,8.95
2023-04-25T11:37:32.562Z,8.92
2023-04-25T11:38:32.730Z,8.84
2023-04-25T11:39:32.984Z,8.73
2023-04-25T11:40:33.135Z,8.73
2023-04-25T11:41:33.300Z,8.67
2023-04-25T11:42:33.474Z,8.71
2023-04-25T11:43:34.559Z,8.82
2023-04-25T11:44:33.872Z,8.74
2023-04-25T11:45:34.163Z,8.71
2023-04-25T11:46:34.354Z,8.76
2023-04-25T11:47:34.623Z,8.70
2023-04-25T11:48:34.887Z,8.74
2023-04-25T11:49:35.204Z,8.63
2023-04-25T11:50:35.497Z,8.52
2023-04-25T11:51:35.814Z,8.61
2023-04-25T11:52:35.976Z,8.61
2023-04-25T11:53:36.173Z,8.56
2023-04-25T11:54:36.376Z,8.69
2023-04-25T11:55:36.536Z,8.58
2023-04-25T11:56:36.712Z,8.78
2023-04-25T11:57:36.951Z,8.69
2023-04-25T11:58:37.112Z,8.69
2023-04-25T11:59:37.341Z,8.88
2023-04-25T12:00:37.622Z,8.92
2023-04-25T12:01:37.822Z,8.99
2023-04-25T12:02:38.158Z,8.97
2023-04-25T12:03:38.306Z,8.97
2023-04-25T12:04:38.518Z,9.25
2023-04-25T12:05:38.707Z,9.65
2023-04-25T12:06:38.816Z,10.15
2023-04-25T12:07:38.938Z,10.12
2023-04-25T12:08:39.122Z,9.95
2023-04-25T12:09:39.438Z,9.86
2023-04-25T12:10:39.518Z,10.17
2023-04-25T12:11:40.947Z,9.91
2023-04-25T12:12:39.835Z,9.84
2023-04-25T12:13:40.000Z,9.40
2023-04-25T12:14:40.328Z,9.04
2023-04-25T12:15:40.617Z,9.02
2023-04-25T12:16:40.917Z,8.76
2023-04-25T12:17:41.230Z,8.41
2023-04-25T12:18:42.687Z,7.88
2023-04-25T12:19:41.907Z,7.45
2023-04-25T12:20:41.758Z,7.28
2023-04-25T12:21:56.630Z,7.18
2023-04-25T12:22:42.258Z,7.33
2023-04-25T12:23:42.456Z,7.43
2023-04-25T12:24:42.615Z,7.45
2023-04-25T12:25:42.783Z,7.69
2023-04-25T12:26:42.974Z,7.98
2023-04-25T12:27:43.177Z,7.87
2023-04-25T12:28:43.381Z,8.41
2023-04-25T12:30:43.775Z,8.38
2023-04-25T12:31:43.978Z,8.91
2023-04-25T12:32:44.169Z,8.31
2023-04-25T12:33:44.306Z,8.60
2023-04-25T12:34:44.625Z,8.09
2023-04-25T12:35:44.719Z,8.05
2023-04-25T12:36:44.892Z,8.67
2023-04-25T12:37:45.076Z,8.88
2023-04-25T12:38:45.257Z,8.44
2023-04-25T12:39:45.473Z,8.33
2023-04-25T12:40:45.622Z,8.56
2023-04-25T12:41:45.841Z,8.52
2023-04-25T12:42:46.003Z,8.37
2023-04-25T12:43:46.169Z,8.37
2023-04-25T12:44:46.414Z,8.41
2023-04-25T12:45:46.547Z,8.19
2023-04-25T12:46:46.731Z,8.46
2023-04-25T12:47:46.919Z,8.27
2023-04-25T12:48:47.088Z,8.30
2023-04-25T12:49:47.253Z,8.49
2023-04-25T12:50:47.419Z,8.61
2023-04-25T12:51:47.618Z,8.81
2023-04-25T12:52:47.776Z,8.85
2023-04-25T12:53:47.949Z,9.13
2023-04-25T12:54:48.135Z,9.31
2023-04-25T12:55:48.301Z,9.14
2023-04-25T12:56:48.485Z,9.62
2023-04-25T12:57:48.720Z,9.32
2023-04-25T12:58:49.320Z,9.37
2023-04-25T12:59:49.082Z,9.51
2023-04-25T13:00:49.285Z,9.69
2023-04-25T13:01:49.636Z,9.59
2023-04-25T13:02:49.816Z,9.92
2023-04-25T13:03:50.038Z,9.68
2023-04-25T13:04:50.049Z,9.95
2023-04-25T13:05:50.251Z,10.31
2023-04-25T13:06:50.459Z,9.46
2023-04-25T13:07:50.607Z,9.65
2023-04-25T13:08:51.055Z,9.86
2023-04-25T13:09:51.025Z,9.79
2023-04-25T13:10:51.197Z,9.39
2023-04-25T13:11:51.386Z,9.44
2023-04-25T13:12:51.566Z,9.23
2023-04-25T13:13:52.108Z,9.22
2023-04-25T13:14:51.971Z,9.54
2023-04-25T13:15:52.158Z,9.72
2023-04-25T13:16:52.368Z,9.62
2023-04-25T13:17:52.583Z,9.98
2023-04-25T13:18:52.728Z,9.69
2023-04-25T13:19:52.934Z,9.91
2023-04-25T13:20:53.099Z,9.91
2023-04-25T13:21:53.323Z,9.48
2023-04-25T13:22:53.506Z,9.29
2023-04-25T13:23:54.252Z,9.34
2023-04-25T13:24:53.895Z,9.40
2023-04-25T13:25:54.065Z,9.51
2023-04-25T13:26:54.233Z,9.72